Time;durP1;ratioP1;P1;durP2;ratioP2;P2;SDS_P1;SDS_P2;PMS_P1;PMS_P2;Temp;Humidity;BMP_temperature;BMP_pressure;BME280_temperature;BME280_humidity;BME280_pressure;Samples;Min_cycle;Max_cycle;Signal;HPM_P1;HPM_P2
2022/11/20 00:00:43;;;;;;;;;;;6.10;99.90;;;;;;5074582;28;20289;-80
2022/11/20 00:03:09;;;;;;;;;;;6.10;99.90;;;;;;5074418;28;20365;-81
2022/11/20 00:05:34;;;;;;;;;;;6.10;99.90;;;;;;5074632;28;19912;-82
2022/11/20 00:08:00;;;;;;;;;;;6.10;99.90;;;;;;5072537;28;19916;-81
2022/11/20 00:10:25;;;;;;;;;;;6.10;99.90;;;;;;5074756;28;20358;-82
2022/11/20 00:12:50;;;;;;;;;;;6.20;99.90;;;;;;5072245;28;19912;-81
2022/11/20 00:15:16;;;;;;;;;;;6.10;99.90;;;;;;5072972;28;19957;-81
2022/11/20 00:17:41;;;;;;;;;;;6.10;99.90;;;;;;5074225;28;19912;-83
2022/11/20 00:20:07;;;;;;;;;;;6.10;99.90;;;;;;5073875;28;20515;-82
2022/11/20 00:22:32;;;;;;;;;;;6.10;99.90;;;;;;5073979;28;19948;-82
2022/11/20 00:24:58;;;;;;;;;;;6.10;99.90;;;;;;5072368;28;20386;-81
2022/11/20 00:27:23;;;;;;;;;;;6.10;99.90;;;;;;5074113;28;19940;-82
2022/11/20 00:29:49;;;;;;;;;;;6.10;99.90;;;;;;5074084;28;20021;-82
2022/11/20 00:32:14;;;;;;;;;;;6.10;99.90;;;;;;5073855;28;20346;-81
2022/11/20 00:34:40;;;;;;;;;;;6.10;99.90;;;;;;5072589;28;19909;-80
2022/11/20 00:37:05;;;;;;;;;;;6.10;99.90;;;;;;5075198;28;19913;-81
2022/11/20 00:39:31;;;;;;;;;;;6.10;99.90;;;;;;5075214;28;20328;-80
2022/11/20 00:41:56;;;;;;;;;;;6.10;99.90;;;;;;5073663;28;19912;-80
2022/11/20 00:44:21;;;;;;;;;;;6.10;99.90;;;;;;5075153;28;19912;-80
2022/11/20 00:46:47;;;;;;;;;;;6.10;99.90;;;;;;5073621;28;19919;-82
2022/11/20 00:49:12;;;;;;;;;;;6.10;99.90;;;;;;5075049;28;20316;-82
2022/11/20 00:51:38;;;;;;;;;;;6.10;99.90;;;;;;5073240;28;19923;-82
2022/11/20 00:54:03;;;;;;;;;;;6.10;99.90;;;;;;5073234;28;19908;-83
2022/11/20 00:56:29;;;;;;;;;;;6.10;99.90;;;;;;5071623;28;19916;-83
2022/11/20 00:58:54;;;;;;;;;;;6.10;99.90;;;;;;5072973;28;20396;-83
2022/11/20 01:01:21;;;;;;;;;;;6.10;99.90;;;;;;5075509;28;19912;-83
2022/11/20 01:03:48;;;;;;;;;;;6.00;99.90;;;;;;5076748;28;19920;-83
2022/11/20 01:06:15;;;;;;;;;;;6.00;99.90;;;;;;5076822;28;19927;-82
2022/11/20 01:08:41;;;;;;;;;;;6.10;99.90;;;;;;5076695;28;19917;-84
2022/11/20 01:11:08;;;;;;;;;;;6.10;99.90;;;;;;5075767;28;19916;-81
2022/11/20 01:13:36;;;;;;;;;;;6.10;99.90;;;;;;5078187;28;19956;-82
2022/11/20 01:16:08;;;;;;;;;;;6.10;99.90;;;;;;5077127;28;19916;-85
2022/11/20 01:18:34;;;;;;;;;;;6.00;99.90;;;;;;5076623;28;19908;-83
2022/11/20 01:21:04;;;;;;;;;;;6.00;99.90;;;;;;5075245;28;19919;-82
2022/11/20 01:23:31;;;;;;;;;;;6.00;99.90;;;;;;5076427;28;19908;-82
2022/11/20 01:25:56;;;;;;;;;;;6.00;99.90;;;;;;5076858;28;19960;-85
2022/11/20 01:28:21;;;;;;;;;;;6.00;99.90;;;;;;5076464;28;19923;-83
2022/11/20 01:30:47;;;;;;;;;;;6.00;99.90;;;;;;5075105;28;19912;-82
2022/11/20 01:33:12;;;;;;;;;;;6.00;99.90;;;;;;5076343;28;19914;-83
2022/11/20 01:35:38;;;;;;;;;;;6.00;99.90;;;;;;5075015;28;20361;-82
2022/11/20 01:38:03;;;;;;;;;;;6.00;99.90;;;;;;5076451;28;19913;-84
2022/11/20 01:40:29;;;;;;;;;;;6.00;99.90;;;;;;5076724;28;19915;-83
2022/11/20 01:46:00;;;;;;;;;;;6.10;99.90;;;;;;5076334;28;19920;-83
2022/11/20 01:48:31;;;;;;;;;;;6.10;99.90;;;;;;5075437;28;19909;-81
2022/11/20 01:50:57;;;;;;;;;;;6.00;99.90;;;;;;5076252;28;20011;-81
2022/11/20 01:53:25;;;;;;;;;;;6.10;99.90;;;;;;5077607;28;19952;-82
2022/11/20 01:55:55;;;;;;;;;;;6.10;99.90;;;;;;5074835;28;19915;-83
2022/11/20 01:58:22;;;;;;;;;;;6.10;99.90;;;;;;5074560;28;19962;-82
2022/11/20 02:00:48;;;;;;;;;;;6.00;99.90;;;;;;5076174;28;19909;-81
2022/11/20 02:03:15;;;;;;;;;;;6.00;99.90;;;;;;5075471;28;19909;-81
2022/11/20 02:05:51;;;;;;;;;;;6.00;99.90;;;;;;5076742;28;19919;-82
2022/11/20 02:08:17;;;;;;;;;;;6.10;99.90;;;;;;5075811;28;19916;-83
2022/11/20 02:10:42;;;;;;;;;;;6.10;99.90;;;;;;5073983;28;19909;-83
2022/11/20 02:15:52;;;;;;;;;;;6.10;99.90;;;;;;5075970;28;19981;-82
2022/11/20 02:18:19;;;;;;;;;;;6.10;99.90;;;;;;5075766;28;19974;-82
2022/11/20 02:20:46;;;;;;;;;;;6.00;99.90;;;;;;5074364;28;20286;-83
2022/11/20 02:23:14;;;;;;;;;;;6.00;99.90;;;;;;5075436;28;19919;-82
2022/11/20 02:25:40;;;;;;;;;;;6.10;99.90;;;;;;5075370;28;19920;-82
2022/11/20 02:28:06;;;;;;;;;;;6.00;99.90;;;;;;5073894;28;19913;-82
2022/11/20 02:30:31;;;;;;;;;;;6.00;99.90;;;;;;5074234;28;19935;-82
2022/11/20 02:32:57;;;;;;;;;;;6.00;99.90;;;;;;5073664;28;20001;-84
2022/11/20 02:35:23;;;;;;;;;;;6.00;99.90;;;;;;5075275;28;19916;-83
2022/11/20 02:37:50;;;;;;;;;;;6.00;99.90;;;;;;5075439;28;19909;-82
2022/11/20 02:40:16;;;;;;;;;;;5.90;99.90;;;;;;5075186;28;19952;-82
2022/11/20 02:42:41;;;;;;;;;;;6.00;99.90;;;;;;5073719;28;20294;-83
2022/11/20 02:45:07;;;;;;;;;;;6.00;99.90;;;;;;5074764;28;20336;-83
2022/11/20 02:47:32;;;;;;;;;;;5.90;99.90;;;;;;5073719;28;19923;-83
2022/11/20 02:49:58;;;;;;;;;;;5.90;99.90;;;;;;5075283;28;19909;-82
2022/11/20 02:52:23;;;;;;;;;;;5.90;99.90;;;;;;5075044;28;19908;-82
2022/11/20 02:54:49;;;;;;;;;;;5.90;99.90;;;;;;5074675;28;19957;-83
2022/11/20 02:57:14;;;;;;;;;;;5.90;99.90;;;;;;5073477;28;19913;-82
2022/11/20 02:59:40;;;;;;;;;;;5.90;99.90;;;;;;5074886;28;19916;-82
2022/11/20 03:02:05;;;;;;;;;;;5.90;99.90;;;;;;5074541;28;19915;-83
2022/11/20 03:04:31;;;;;;;;;;;5.90;99.90;;;;;;5074478;28;19966;-83
2022/11/20 03:06:56;;;;;;;;;;;5.90;99.90;;;;;;5074764;28;19916;-83
2022/11/20 03:09:22;;;;;;;;;;;5.80;99.90;;;;;;5073096;28;19924;-82
2022/11/20 03:11:47;;;;;;;;;;;5.70;99.90;;;;;;5073218;28;20007;-83
2022/11/20 03:14:13;;;;;;;;;;;5.80;99.90;;;;;;5073015;28;19912;-82
2022/11/20 03:16:38;;;;;;;;;;;5.80;99.90;;;;;;5074485;28;19946;-84
2022/11/20 03:19:03;;;;;;;;;;;5.80;99.90;;;;;;5073002;28;20358;-83
2022/11/20 03:21:29;;;;;;;;;;;5.80;99.90;;;;;;5073168;28;19909;-83
2022/11/20 03:23:54;;;;;;;;;;;5.80;99.90;;;;;;5071981;28;20026;-82
2022/11/20 03:26:21;;;;;;;;;;;5.80;99.90;;;;;;5072472;28;19913;-83
2022/11/20 03:28:54;;;;;;;;;;;5.80;99.90;;;;;;5072661;28;19975;-81
2022/11/20 03:31:22;;;;;;;;;;;5.80;99.90;;;;;;5072885;28;19908;-83
2022/11/20 03:33:47;;;;;;;;;;;5.80;99.90;;;;;;5072329;28;20042;-81
2022/11/20 03:36:13;;;;;;;;;;;5.80;99.90;;;;;;5074078;28;19960;-83
2022/11/20 03:38:39;;;;;;;;;;;5.70;99.90;;;;;;5073977;28;20546;-83
2022/11/20 03:41:06;;;;;;;;;;;5.70;99.90;;;;;;5074096;28;19916;-81
2022/11/20 03:43:31;;;;;;;;;;;5.70;99.90;;;;;;5074538;28;19913;-81
2022/11/20 03:45:57;;;;;;;;;;;5.70;99.90;;;;;;5073452;28;19926;-81
2022/11/20 03:48:23;;;;;;;;;;;5.70;99.90;;;;;;5073315;28;19947;-81
2022/11/20 03:50:48;;;;;;;;;;;5.80;99.90;;;;;;5075176;28;20353;-83
2022/11/20 03:53:15;;;;;;;;;;;5.80;99.90;;;;;;5072279;28;20281;-82
2022/11/20 03:55:40;;;;;;;;;;;5.80;99.90;;;;;;5074478;28;19915;-82
2022/11/20 03:58:06;;;;;;;;;;;5.70;99.90;;;;;;5072933;28;19908;-83
2022/11/20 04:00:31;;;;;;;;;;;5.60;99.90;;;;;;5072944;28;19938;-81
2022/11/20 04:03:00;;;;;;;;;;;5.50;99.90;;;;;;5072970;28;19961;-82
2022/11/20 04:05:26;;;;;;;;;;;5.40;99.90;;;;;;5073128;28;19912;-82
2022/11/20 04:07:51;;;;;;;;;;;5.40;99.90;;;;;;5073884;28;19920;-81
2022/11/20 04:10:17;;;;;;;;;;;5.30;99.90;;;;;;5074510;28;19978;-81
2022/11/20 04:12:42;;;;;;;;;;;5.30;99.90;;;;;;5073377;28;20298;-81
2022/11/20 04:15:08;;;;;;;;;;;5.30;99.90;;;;;;5074115;28;19956;-81
2022/11/20 04:17:33;;;;;;;;;;;5.30;99.90;;;;;;5073265;28;19909;-81
2022/11/20 04:19:59;;;;;;;;;;;5.30;99.90;;;;;;5074456;28;19909;-81
2022/11/20 04:22:24;;;;;;;;;;;5.20;99.90;;;;;;5072940;28;20011;-81
2022/11/20 04:24:50;;;;;;;;;;;5.20;99.90;;;;;;5073957;28;19924;-82
2022/11/20 04:27:15;;;;;;;;;;;5.30;99.90;;;;;;5073028;28;19930;-81
2022/11/20 04:29:41;;;;;;;;;;;5.30;99.90;;;;;;5073921;28;20412;-82
2022/11/20 04:32:06;;;;;;;;;;;5.40;99.90;;;;;;5074035;28;19916;-81
2022/11/20 04:34:31;;;;;;;;;;;5.50;99.90;;;;;;5073124;28;19955;-84
2022/11/20 04:36:57;;;;;;;;;;;5.60;99.90;;;;;;5073686;28;19909;-81
2022/11/20 04:39:22;;;;;;;;;;;5.70;99.90;;;;;;5073549;28;19909;-82
2022/11/20 04:41:48;;;;;;;;;;;5.70;99.90;;;;;;5072299;28;19951;-83
2022/11/20 04:44:13;;;;;;;;;;;5.80;99.90;;;;;;5072185;28;19908;-82
2022/11/20 04:46:41;;;;;;;;;;;5.80;99.90;;;;;;5073786;28;19920;-83
2022/11/20 04:49:06;;;;;;;;;;;5.80;99.90;;;;;;5072240;28;19908;-84
2022/11/20 04:51:33;;;;;;;;;;;5.90;99.90;;;;;;5072588;28;19908;-83
2022/11/20 04:53:58;;;;;;;;;;;5.90;99.90;;;;;;5073449;28;19909;-82
2022/11/20 04:56:23;;;;;;;;;;;5.90;99.90;;;;;;5074138;28;20011;-82
2022/11/20 04:58:49;;;;;;;;;;;6.00;99.90;;;;;;5073809;28;20370;-83
2022/11/20 05:01:16;;;;;;;;;;;6.00;99.90;;;;;;5073869;28;20354;-82
2022/11/20 05:03:42;;;;;;;;;;;6.00;99.90;;;;;;5073501;28;19912;-83
2022/11/20 05:06:08;;;;;;;;;;;6.00;99.90;;;;;;5072239;28;20393;-81
2022/11/20 05:08:34;;;;;;;;;;;6.00;99.90;;;;;;5072720;28;19916;-82
2022/11/20 05:11:10;;;;;;;;;;;6.10;99.90;;;;;;5072421;28;19915;-82
2022/11/20 05:13:36;;;;;;;;;;;6.10;99.90;;;;;;5075043;28;19908;-83
2022/11/20 05:16:08;;;;;;;;;;;6.00;99.90;;;;;;5072411;28;19962;-84
2022/11/20 05:18:34;;;;;;;;;;;6.00;99.90;;;;;;5074228;28;20013;-82
2022/11/20 05:21:00;;;;;;;;;;;5.90;99.90;;;;;;5073732;28;19912;-84
2022/11/20 05:23:27;;;;;;;;;;;5.90;99.90;;;;;;5073583;28;20285;-82
2022/11/20 05:25:56;;;;;;;;;;;6.00;99.90;;;;;;5074026;28;19935;-83
2022/11/20 05:28:21;;;;;;;;;;;6.00;99.90;;;;;;5073700;28;19913;-82
2022/11/20 05:30:47;;;;;;;;;;;6.00;99.90;;;;;;5073897;28;20384;-81
2022/11/20 05:33:12;;;;;;;;;;;6.10;99.90;;;;;;5073576;28;20002;-81
2022/11/20 05:35:38;;;;;;;;;;;6.00;99.90;;;;;;5073918;28;19948;-82
2022/11/20 05:38:03;;;;;;;;;;;6.00;99.90;;;;;;5073546;28;19944;-80
2022/11/20 05:40:29;;;;;;;;;;;6.10;99.90;;;;;;5072070;28;19909;-81
2022/11/20 05:42:54;;;;;;;;;;;6.10;99.90;;;;;;5071865;28;19909;-81
2022/11/20 05:45:20;;;;;;;;;;;6.10;99.90;;;;;;5071820;28;20458;-83
2022/11/20 05:47:45;;;;;;;;;;;6.00;99.90;;;;;;5076835;28;20373;-83
2022/11/20 05:50:11;;;;;;;;;;;6.10;99.90;;;;;;5075782;28;19912;-82
2022/11/20 05:52:36;;;;;;;;;;;6.10;99.90;;;;;;5076767;28;19916;-83
2022/11/20 05:55:02;;;;;;;;;;;6.10;99.90;;;;;;5074729;28;20362;-83
2022/11/20 05:57:27;;;;;;;;;;;6.10;99.90;;;;;;5076483;28;19913;-82
2022/11/20 05:59:52;;;;;;;;;;;6.10;99.90;;;;;;5076527;28;20396;-82
2022/11/20 06:02:18;;;;;;;;;;;6.10;99.90;;;;;;5075359;28;19912;-83
2022/11/20 06:04:43;;;;;;;;;;;6.10;99.90;;;;;;5076532;28;19937;-82
2022/11/20 06:07:09;;;;;;;;;;;6.20;99.90;;;;;;5074922;28;19912;-83
2022/11/20 06:09:34;;;;;;;;;;;6.20;99.90;;;;;;5076340;28;20339;-81
2022/11/20 06:12:00;;;;;;;;;;;6.20;99.90;;;;;;5078247;28;19909;-81
2022/11/20 06:14:25;;;;;;;;;;;6.20;99.90;;;;;;5075536;28;19908;-82
2022/11/20 06:16:51;;;;;;;;;;;6.20;99.90;;;;;;5077871;28;20436;-81
2022/11/20 06:19:16;;;;;;;;;;;6.20;99.90;;;;;;5076237;28;19908;-81
2022/11/20 06:21:42;;;;;;;;;;;6.20;99.90;;;;;;5077940;28;20003;-82
2022/11/20 06:24:08;;;;;;;;;;;6.20;99.90;;;;;;5077356;28;20352;-81
2022/11/20 06:26:34;;;;;;;;;;;6.10;99.90;;;;;;5077786;28;19958;-81
2022/11/20 06:28:59;;;;;;;;;;;6.00;99.90;;;;;;5075369;28;19908;-81
2022/11/20 06:31:25;;;;;;;;;;;6.00;99.90;;;;;;5077324;28;19908;-80
2022/11/20 06:33:51;;;;;;;;;;;6.10;99.90;;;;;;5075406;28;20413;-81
2022/11/20 06:36:17;;;;;;;;;;;6.10;99.90;;;;;;5076741;28;19909;-81
2022/11/20 06:38:43;;;;;;;;;;;6.00;99.90;;;;;;5075424;28;19915;-80
2022/11/20 06:41:16;;;;;;;;;;;6.00;99.90;;;;;;5075210;28;19909;-81
2022/11/20 06:43:41;;;;;;;;;;;6.00;99.90;;;;;;5075056;28;19920;-81
2022/11/20 06:46:08;;;;;;;;;;;6.00;99.90;;;;;;5075189;28;19913;-81
2022/11/20 06:48:34;;;;;;;;;;;6.00;99.90;;;;;;5076554;28;19916;-81
2022/11/20 06:50:59;;;;;;;;;;;5.90;99.90;;;;;;5075175;28;19909;-81
2022/11/20 06:53:25;;;;;;;;;;;5.90;99.90;;;;;;5074978;28;19930;-81
2022/11/20 06:55:50;;;;;;;;;;;5.90;99.90;;;;;;5074946;28;19915;-81
2022/11/20 06:58:16;;;;;;;;;;;5.90;99.90;;;;;;5076038;28;20366;-81
2022/11/20 07:00:42;;;;;;;;;;;5.90;99.90;;;;;;5076132;28;19908;-81
2022/11/20 07:03:08;;;;;;;;;;;5.90;99.90;;;;;;5074786;28;19954;-81
2022/11/20 07:05:34;;;;;;;;;;;6.00;99.90;;;;;;5074360;28;19916;-81
2022/11/20 07:08:00;;;;;;;;;;;6.00;99.90;;;;;;5074519;28;20271;-81
2022/11/20 07:10:25;;;;;;;;;;;6.00;99.90;;;;;;5074613;28;19915;-81
2022/11/20 07:12:54;;;;;;;;;;;6.00;99.90;;;;;;5074426;28;19931;-81
2022/11/20 07:15:20;;;;;;;;;;;6.00;99.90;;;;;;5076335;28;19912;-81
2022/11/20 07:17:46;;;;;;;;;;;6.10;99.90;;;;;;5076295;28;20008;-81
2022/11/20 07:20:12;;;;;;;;;;;6.10;99.90;;;;;;5076698;28;19955;-81
2022/11/20 07:22:37;;;;;;;;;;;6.10;99.90;;;;;;5077075;28;19962;-82
2022/11/20 07:25:03;;;;;;;;;;;6.10;99.90;;;;;;5075987;28;20301;-81
2022/11/20 07:27:29;;;;;;;;;;;6.20;99.90;;;;;;5076096;28;19917;-81
2022/11/20 07:29:54;;;;;;;;;;;6.20;99.90;;;;;;5075493;28;19909;-81
2022/11/20 07:32:20;;;;;;;;;;;6.30;99.90;;;;;;5075320;28;19909;-81
2022/11/20 07:34:46;;;;;;;;;;;6.30;99.90;;;;;;5074182;28;20019;-81
2022/11/20 07:37:11;;;;;;;;;;;6.40;99.90;;;;;;5074021;28;20288;-81
2022/11/20 07:39:37;;;;;;;;;;;6.40;99.90;;;;;;5075805;28;20091;-81
2022/11/20 07:42:02;;;;;;;;;;;6.40;99.90;;;;;;5075111;28;19915;-81
2022/11/20 07:44:28;;;;;;;;;;;6.40;99.90;;;;;;5075169;28;19994;-81
2022/11/20 07:46:53;;;;;;;;;;;6.40;99.90;;;;;;5074665;28;19995;-81
2022/11/20 07:49:19;;;;;;;;;;;6.50;99.90;;;;;;5073887;28;19931;-81
2022/11/20 07:51:44;;;;;;;;;;;6.50;99.90;;;;;;5074741;28;19912;-81
2022/11/20 07:54:10;;;;;;;;;;;6.50;99.90;;;;;;5073721;28;19963;-81
2022/11/20 07:56:35;;;;;;;;;;;6.50;99.90;;;;;;5074690;28;19908;-81
2022/11/20 07:59:01;;;;;;;;;;;6.50;99.90;;;;;;5073309;28;19913;-81
2022/11/20 08:01:26;;;;;;;;;;;6.50;99.90;;;;;;5073364;28;20397;-81
2022/11/20 08:03:51;;;;;;;;;;;6.40;99.90;;;;;;5074077;28;20270;-81
2022/11/20 08:06:19;;;;;;;;;;;6.40;99.90;;;;;;5074684;28;19912;-81
2022/11/20 08:08:46;;;;;;;;;;;6.50;99.90;;;;;;5072369;28;20401;-82
2022/11/20 08:14:11;;;;;;;;;;;6.50;99.90;;;;;;5075234;28;19966;-81
2022/11/20 08:16:37;;;;;;;;;;;6.50;99.90;;;;;;5075366;28;19908;-81
2022/11/20 08:19:02;;;;;;;;;;;6.50;99.90;;;;;;5073253;28;19915;-81
2022/11/20 08:21:28;;;;;;;;;;;6.60;99.90;;;;;;5075542;28;19908;-81
2022/11/20 08:23:53;;;;;;;;;;;6.60;99.90;;;;;;5074610;28;19912;-81
2022/11/20 08:26:20;;;;;;;;;;;6.60;99.90;;;;;;5075646;28;20477;-81
2022/11/20 08:28:46;;;;;;;;;;;6.60;99.90;;;;;;5083867;28;19984;-81
2022/11/20 08:31:12;;;;;;;;;;;6.60;99.90;;;;;;5084711;28;19913;-83
2022/11/20 08:33:37;;;;;;;;;;;6.60;99.90;;;;;;5079356;28;19908;-82
2022/11/20 08:36:03;;;;;;;;;;;6.70;99.90;;;;;;5080307;28;19915;-82
2022/11/20 08:38:29;;;;;;;;;;;6.80;99.90;;;;;;5079092;28;20007;-82
2022/11/20 08:43:42;;;;;;;;;;;7.00;99.90;;;;;;5078371;28;20293;-82
2022/11/20 08:46:07;;;;;;;;;;;7.10;99.90;;;;;;5078053;28;19956;-81
2022/11/20 08:48:33;;;;;;;;;;;7.30;99.90;;;;;;5076289;28;20274;-82
2022/11/20 08:50:59;;;;;;;;;;;7.50;99.90;;;;;;5078050;28;19954;-81
2022/11/20 08:53:24;;;;;;;;;;;7.60;99.90;;;;;;5078225;28;19908;-82
2022/11/20 08:55:50;;;;;;;;;;;7.80;99.90;;;;;;5075926;28;19915;-82
2022/11/20 08:58:15;;;;;;;;;;;8.00;99.90;;;;;;5076634;28;19909;-82
2022/11/20 09:00:41;;;;;;;;;;;8.20;99.90;;;;;;5076371;28;19966;-82
2022/11/20 09:03:06;;;;;;;;;;;8.40;99.90;;;;;;5077439;28;19915;-82
2022/11/20 09:05:32;;;;;;;;;;;8.50;99.90;;;;;;5077114;28;19909;-81
2022/11/20 09:07:58;;;;;;;;;;;8.40;99.90;;;;;;5077499;28;19917;-82
2022/11/20 09:10:23;;;;;;;;;;;8.40;99.90;;;;;;5076544;28;20046;-82
2022/11/20 09:12:49;;;;;;;;;;;8.20;99.90;;;;;;5077289;28;20278;-81
2022/11/20 09:15:14;;;;;;;;;;;8.10;99.90;;;;;;5077091;28;19909;-82
2022/11/20 09:17:40;;;;;;;;;;;7.90;99.90;;;;;;5076966;28;19908;-81
2022/11/20 09:20:06;;;;;;;;;;;7.90;99.90;;;;;;5075426;28;20285;-82
2022/11/20 09:22:31;;;;;;;;;;;7.90;99.90;;;;;;5078528;28;19948;-81
2022/11/20 09:24:56;;;;;;;;;;;7.90;99.90;;;;;;5079316;28;19909;-81
2022/11/20 09:27:22;;;;;;;;;;;8.00;99.90;;;;;;5079159;28;19912;-81
2022/11/20 09:29:47;;;;;;;;;;;8.30;99.90;;;;;;5078580;28;19912;-81
2022/11/20 09:32:13;;;;;;;;;;;8.60;99.90;;;;;;5079679;28;19909;-81
2022/11/20 09:34:38;;;;;;;;;;;8.70;99.90;;;;;;5079499;28;19932;-82
2022/11/20 09:37:04;;;;;;;;;;;8.90;99.90;;;;;;5079634;28;19915;-82
2022/11/20 09:39:29;;;;;;;;;;;8.90;99.90;;;;;;5079627;28;19909;-81
2022/11/20 09:42:00;;;;;;;;;;;8.80;99.90;;;;;;5078150;28;19909;-81
2022/11/20 09:44:26;;;;;;;;;;;8.70;99.90;;;;;;5079216;28;19916;-81
2022/11/20 09:46:57;;;;;;;;;;;8.60;99.90;;;;;;5079527;28;19912;-81
2022/11/20 09:49:32;;;;;;;;;;;8.50;99.90;;;;;;5078988;28;19934;-81
2022/11/20 09:52:07;;;;;;;;;;;8.40;99.90;;;;;;5076963;28;19915;-80
2022/11/20 09:54:35;;;;;;;;;;;8.40;99.90;;;;;;5077459;28;20388;-82
2022/11/20 09:57:21;;;;;;;;;;;8.40;99.90;;;;;;5078730;28;20246;-82
2022/11/20 09:59:51;;;;;;;;;;;8.40;99.90;;;;;;5077686;28;19953;-82
2022/11/20 10:02:17;;;;;;;;;;;8.50;99.90;;;;;;5079279;28;20011;-82
2022/11/20 10:04:46;;;;;;;;;;;8.30;99.90;;;;;;5076912;28;20358;-80
2022/11/20 10:07:24;;;;;;;;;;;8.20;99.90;;;;;;5079108;28;19999;-80
2022/11/20 10:09:51;;;;;;;;;;;8.20;99.90;;;;;;5076963;28;20503;-81
2022/11/20 10:12:35;;;;;;;;;;;8.20;99.90;;;;;;5079617;28;19948;-82
2022/11/20 10:15:24;;;;;;;;;;;8.30;99.90;;;;;;5079354;28;19908;-82
2022/11/20 10:17:55;;;;;;;;;;;8.30;99.90;;;;;;5079268;28;20279;-80
2022/11/20 10:20:23;;;;;;;;;;;8.30;99.90;;;;;;5079552;28;19912;-82
2022/11/20 10:23:12;;;;;;;;;;;8.10;99.90;;;;;;5079467;28;20310;-82
2022/11/20 10:25:40;;;;;;;;;;;8.00;99.90;;;;;;5079304;28;19944;-80
2022/11/20 10:28:11;;;;;;;;;;;7.90;99.90;;;;;;5078594;28;19908;-82
2022/11/20 10:30:38;;;;;;;;;;;7.90;99.90;;;;;;5080608;28;19908;-80
2022/11/20 10:33:06;;;;;;;;;;;8.00;99.90;;;;;;5078303;28;20549;-80
2022/11/20 10:35:31;;;;;;;;;;;8.00;99.90;;;;;;5077590;28;20352;-81
2022/11/20 10:38:01;;;;;;;;;;;8.10;99.90;;;;;;5076160;28;19908;-81
2022/11/20 10:40:43;;;;;;;;;;;8.30;99.90;;;;;;5075453;28;19958;-81
2022/11/20 10:43:15;;;;;;;;;;;8.40;99.90;;;;;;5073511;28;20361;-80
2022/11/20 10:45:54;;;;;;;;;;;8.40;99.90;;;;;;5073902;28;19912;-81
2022/11/20 10:48:23;;;;;;;;;;;8.50;99.90;;;;;;5075292;28;19909;-81
2022/11/20 10:51:07;;;;;;;;;;;8.50;99.90;;;;;;5073444;28;19908;-81
2022/11/20 10:53:51;;;;;;;;;;;8.50;99.90;;;;;;5073077;28;19995;-82
2022/11/20 10:56:19;;;;;;;;;;;8.40;99.90;;;;;;5074727;28;20259;-81
2022/11/20 10:58:50;;;;;;;;;;;8.30;99.90;;;;;;5074420;28;20086;-82
2022/11/20 11:01:23;;;;;;;;;;;8.30;99.90;;;;;;5074660;28;19908;-81
2022/11/20 11:03:49;;;;;;;;;;;8.20;99.90;;;;;;5073059;28;19908;-81
2022/11/20 11:06:28;;;;;;;;;;;8.10;99.90;;;;;;5073862;28;20328;-82
2022/11/20 11:08:55;;;;;;;;;;;8.20;99.90;;;;;;5072997;28;19963;-82
2022/11/20 11:11:25;;;;;;;;;;;8.10;99.90;;;;;;5073240;28;19912;-81
2022/11/20 11:13:51;;;;;;;;;;;8.10;99.90;;;;;;5074192;28;19913;-82
2022/11/20 11:16:21;;;;;;;;;;;8.00;99.90;;;;;;5074646;28;19916;-82
2022/11/20 11:18:46;;;;;;;;;;;7.90;99.90;;;;;;5072920;28;20281;-81
2022/11/20 11:21:12;;;;;;;;;;;7.80;99.90;;;;;;5074529;28;19915;-81
2022/11/20 11:23:38;;;;;;;;;;;7.70;99.90;;;;;;5074084;28;20378;-82
2022/11/20 11:26:05;;;;;;;;;;;7.70;99.90;;;;;;5074304;28;20424;-82
2022/11/20 11:28:31;;;;;;;;;;;7.70;99.90;;;;;;5074097;28;19913;-82
2022/11/20 11:30:57;;;;;;;;;;;7.70;99.90;;;;;;5074287;28;20003;-83
2022/11/20 11:33:27;;;;;;;;;;;7.70;99.90;;;;;;5072152;28;19989;-81
2022/11/20 11:35:57;;;;;;;;;;;7.80;99.90;;;;;;5072426;28;19908;-81
2022/11/20 11:38:26;;;;;;;;;;;7.80;99.90;;;;;;5073943;28;19909;-82
2022/11/20 11:40:53;;;;;;;;;;;7.80;99.90;;;;;;5072629;28;19948;-82
2022/11/20 11:46:08;;;;;;;;;;;7.80;99.90;;;;;;5074012;28;19938;-82
2022/11/20 11:48:34;;;;;;;;;;;7.70;99.90;;;;;;5073869;28;19908;-82
2022/11/20 11:50:59;;;;;;;;;;;7.70;99.90;;;;;;5072453;28;19908;-82
2022/11/20 11:53:26;;;;;;;;;;;7.70;99.90;;;;;;5073600;28;19954;-81
2022/11/20 11:56:08;;;;;;;;;;;7.70;99.90;;;;;;5073792;28;19995;-83
2022/11/20 11:58:42;;;;;;;;;;;7.70;99.90;;;;;;5073625;28;20362;-81
2022/11/20 12:01:27;;;;;;;;;;;7.70;99.90;;;;;;5072271;28;19909;-81
2022/11/20 12:03:59;;;;;;;;;;;7.70;99.90;;;;;;5072096;28;20258;-83
2022/11/20 12:06:25;;;;;;;;;;;7.70;99.90;;;;;;5073794;28;19912;-81
2022/11/20 12:09:02;;;;;;;;;;;7.60;99.90;;;;;;5072340;28;19924;-81
2022/11/20 12:11:45;;;;;;;;;;;7.50;99.90;;;;;;5073627;28;19915;-81
2022/11/20 12:14:23;;;;;;;;;;;7.70;99.90;;;;;;5073429;28;19914;-80
2022/11/20 12:16:50;;;;;;;;;;;7.70;99.90;;;;;;5073851;28;19962;-80
2022/11/20 12:19:15;;;;;;;;;;;7.70;99.90;;;;;;5073494;28;19977;-80
2022/11/20 12:21:47;;;;;;;;;;;7.70;99.90;;;;;;5073398;28;20366;-80
2022/11/20 12:24:23;;;;;;;;;;;7.70;99.90;;;;;;5073505;28;19909;-80
2022/11/20 12:26:57;;;;;;;;;;;7.60;99.90;;;;;;5073587;28;20285;-80
2022/11/20 12:29:41;;;;;;;;;;;7.60;99.90;;;;;;5072270;28;20388;-80
2022/11/20 12:32:06;;;;;;;;;;;7.60;99.90;;;;;;5076087;28;19912;-80
2022/11/20 12:34:48;;;;;;;;;;;7.60;99.90;;;;;;5073083;28;19915;-80
2022/11/20 12:37:16;;;;;;;;;;;7.60;99.90;;;;;;5074784;28;19909;-81
2022/11/20 12:39:42;;;;;;;;;;;7.70;99.90;;;;;;5073347;28;19908;-80
2022/11/20 12:45:19;;;;;;;;;;;7.80;99.90;;;;;;5072556;28;19977;-80
2022/11/20 12:47:48;;;;;;;;;;;7.80;99.90;;;;;;5072585;28;19912;-80
2022/11/20 12:50:32;;;;;;;;;;;8.00;99.90;;;;;;5073069;28;20361;-80
2022/11/20 12:53:03;;;;;;;;;;;8.10;99.90;;;;;;5071265;28;19908;-81
2022/11/20 12:55:36;;;;;;;;;;;8.30;99.90;;;;;;5075103;28;20371;-80
2022/11/20 12:58:09;;;;;;;;;;;8.50;99.90;;;;;;5077272;28;19909;-80
2022/11/20 13:00:37;;;;;;;;;;;8.50;99.90;;;;;;5077443;28;20530;-80
2022/11/20 13:03:21;;;;;;;;;;;8.50;99.90;;;;;;5076692;28;19958;-80
2022/11/20 13:06:01;;;;;;;;;;;8.60;99.90;;;;;;5075692;28;19913;-80
2022/11/20 13:08:33;;;;;;;;;;;8.80;99.90;;;;;;5075511;28;19917;-80
2022/11/20 13:11:07;;;;;;;;;;;8.80;99.90;;;;;;5075431;28;19908;-80
2022/11/20 13:13:44;;;;;;;;;;;8.70;99.90;;;;;;5076506;28;19915;-80
2022/11/20 13:16:09;;;;;;;;;;;8.70;99.90;;;;;;5076770;28;19954;-81
2022/11/20 13:18:37;;;;;;;;;;;8.70;99.90;;;;;;5075311;28;19908;-80
2022/11/20 13:21:12;;;;;;;;;;;8.60;99.90;;;;;;5075545;28;19915;-80
2022/11/20 13:23:38;;;;;;;;;;;8.60;99.90;;;;;;5076358;28;19909;-80
2022/11/20 13:26:15;;;;;;;;;;;8.50;99.90;;;;;;5075354;28;19935;-81
2022/11/20 13:28:40;;;;;;;;;;;8.40;99.90;;;;;;5076465;28;19908;-80
2022/11/20 13:31:23;;;;;;;;;;;8.50;99.90;;;;;;5076404;28;19915;-80
2022/11/20 13:33:51;;;;;;;;;;;8.40;99.90;;;;;;5076238;28;19912;-80
2022/11/20 13:36:25;;;;;;;;;;;8.40;99.90;;;;;;5076416;28;19909;-80
2022/11/20 13:38:51;;;;;;;;;;;8.30;99.90;;;;;;5074875;28;20366;-80
2022/11/20 13:41:31;;;;;;;;;;;8.30;99.90;;;;;;5076375;28;19958;-80
2022/11/20 13:44:14;;;;;;;;;;;8.20;99.90;;;;;;5075958;28;20374;-80
2022/11/20 13:46:42;;;;;;;;;;;8.30;99.90;;;;;;5076263;28;20007;-80
2022/11/20 13:49:09;;;;;;;;;;;8.40;99.90;;;;;;5074773;28;19934;-80
2022/11/20 13:51:43;;;;;;;;;;;8.50;99.90;;;;;;5075182;28;20445;-81
2022/11/20 13:54:18;;;;;;;;;;;8.50;99.90;;;;;;5075651;28;19947;-80
2022/11/20 13:56:52;;;;;;;;;;;8.50;99.90;;;;;;5076018;28;19908;-80
2022/11/20 13:59:33;;;;;;;;;;;8.50;99.90;;;;;;5066930;28;19947;-81
2022/11/20 14:01:59;;;;;;;;;;;8.40;99.90;;;;;;5076039;28;20007;-81
2022/11/20 14:04:38;;;;;;;;;;;8.40;99.90;;;;;;5075640;28;19908;-81
2022/11/20 14:07:05;;;;;;;;;;;8.30;99.90;;;;;;5074452;28;19920;-82
2022/11/20 14:09:32;;;;;;;;;;;8.40;99.90;;;;;;5074258;28;19942;-82
2022/11/20 14:11:58;;;;;;;;;;;8.50;99.90;;;;;;5074269;28;19915;-82
2022/11/20 14:14:27;;;;;;;;;;;8.40;99.90;;;;;;5073874;28;20003;-83
2022/11/20 14:17:04;;;;;;;;;;;8.30;99.90;;;;;;5074069;28;19908;-84
2022/11/20 14:19:33;;;;;;;;;;;8.40;99.90;;;;;;5073799;28;19955;-83
2022/11/20 14:22:18;;;;;;;;;;;8.30;99.90;;;;;;5074048;28;19958;-82
2022/11/20 14:24:44;;;;;;;;;;;8.30;99.90;;;;;;5074259;28;19909;-83
2022/11/20 14:27:19;;;;;;;;;;;8.20;99.90;;;;;;5073524;28;20255;-83
2022/11/20 14:29:49;;;;;;;;;;;8.30;99.90;;;;;;5075150;28;19909;-83
2022/11/20 14:32:16;;;;;;;;;;;8.20;99.90;;;;;;5074538;28;19915;-83
2022/11/20 14:34:43;;;;;;;;;;;8.30;99.90;;;;;;5073725;28;19912;-84
2022/11/20 14:37:13;;;;;;;;;;;8.30;99.90;;;;;;5075105;28;19950;-83
2022/11/20 14:39:42;;;;;;;;;;;8.20;99.90;;;;;;5057788;28;19952;-83
2022/11/20 14:42:15;;;;;;;;;;;8.20;99.90;;;;;;5054066;28;20366;-82
2022/11/20 14:44:41;;;;;;;;;;;8.20;99.90;;;;;;5055147;28;19932;-82
2022/11/20 14:47:09;;;;;;;;;;;8.20;99.90;;;;;;5054277;28;19913;-82
2022/11/20 14:49:35;;;;;;;;;;;8.20;99.90;;;;;;5055754;28;19913;-83
2022/11/20 14:52:17;;;;;;;;;;;8.10;99.90;;;;;;5053942;28;19919;-83